createdAt,value
2017-11-28T00:02:14.736Z,1.37
2017-11-28T00:04:44.264Z,1.00
2017-11-28T00:07:13.739Z,1.20
2017-11-28T00:09:43.257Z,1.12
2017-11-28T00:12:12.750Z,1.27
2017-11-28T00:14:42.245Z,0.90
2017-11-28T00:17:11.722Z,1.75
2017-11-28T00:19:41.239Z,1.05
2017-11-28T00:22:10.737Z,1.12
2017-11-28T00:24:40.254Z,1.10
2017-11-28T00:27:09.748Z,1.25
2017-11-28T00:29:39.254Z,1.00
2017-11-28T00:32:08.726Z,1.10
2017-11-28T00:34:38.228Z,1.20
2017-11-28T00:37:07.982Z,1.12
2017-11-28T00:39:37.451Z,0.98
2017-11-28T00:42:06.943Z,1.10
2017-11-28T00:44:36.440Z,1.00
2017-11-28T00:47:05.960Z,0.90
2017-11-28T00:49:35.471Z,1.30
2017-11-28T00:52:05.003Z,0.80
2017-11-28T00:54:34.470Z,1.00
2017-11-28T00:57:04.002Z,0.90
2017-11-28T00:59:33.480Z,0.80
2017-11-28T01:02:02.980Z,0.80
2017-11-28T01:04:32.499Z,0.80
2017-11-28T01:07:02.022Z,0.85
2017-11-28T01:09:31.734Z,1.00
2017-11-28T01:12:01.206Z,1.00
2017-11-28T01:14:30.752Z,0.80
2017-11-28T01:17:00.237Z,1.30
2017-11-28T01:19:29.741Z,1.60
2017-11-28T01:21:59.370Z,1.05
2017-11-28T01:24:28.901Z,1.17
2017-11-28T01:26:58.548Z,0.70
2017-11-28T01:29:28.025Z,1.00
2017-11-28T01:31:57.526Z,0.70
2017-11-28T01:34:27.012Z,0.90
2017-11-28T01:36:56.529Z,0.73
2017-11-28T01:39:26.009Z,0.80
2017-11-28T01:41:55.516Z,0.80
2017-11-28T01:44:25.005Z,0.70
2017-11-28T01:46:54.511Z,0.70
2017-11-28T01:49:23.982Z,0.90
2017-11-28T01:51:53.496Z,0.80
2017-11-28T01:54:22.950Z,0.80
2017-11-28T01:56:52.545Z,0.98
2017-11-28T01:59:22.054Z,0.80
2017-11-28T02:01:51.538Z,1.00
2017-11-28T02:04:21.051Z,0.70
2017-11-28T02:06:50.526Z,0.70
2017-11-28T02:09:20.062Z,0.77
2017-11-28T02:11:49.564Z,0.80
2017-11-28T02:14:19.101Z,1.00
2017-11-28T02:16:48.604Z,1.15
2017-11-28T02:19:18.147Z,0.80
2017-11-28T02:21:47.816Z,1.40
2017-11-28T02:24:17.367Z,1.02
2017-11-28T02:26:46.899Z,0.85
2017-11-28T02:29:16.514Z,0.75
2017-11-28T02:31:46.014Z,0.70
2017-11-28T02:34:15.519Z,1.25
2017-11-28T02:36:45.053Z,1.25
2017-11-28T02:39:14.590Z,0.80
2017-11-28T02:41:44.106Z,0.85
2017-11-28T02:44:13.693Z,1.00
2017-11-28T02:46:43.201Z,1.15
2017-11-28T02:49:18.627Z,0.73
2017-11-28T02:52:03.913Z,0.70
2017-11-28T02:54:33.404Z,0.80
2017-11-28T02:57:02.925Z,1.90
2017-11-28T02:59:32.422Z,0.90
2017-11-28T03:02:01.908Z,0.80
2017-11-28T03:04:31.413Z,0.95
2017-11-28T03:07:00.886Z,1.27
2017-11-28T03:09:31.271Z,1.73
2017-11-28T03:12:00.780Z,0.90
2017-11-28T03:14:31.233Z,1.58
2017-11-28T03:17:00.733Z,1.27
2017-11-28T03:19:31.051Z,0.90
2017-11-28T03:22:06.560Z,0.90
2017-11-28T03:24:39.075Z,0.90
2017-11-28T03:27:09.189Z,0.80
2017-11-28T03:29:55.394Z,0.80
2017-11-28T03:32:24.959Z,0.70
2017-11-28T03:34:54.457Z,2.85
2017-11-28T03:37:24.011Z,0.90
2017-11-28T03:39:53.554Z,1.10
2017-11-28T03:42:23.080Z,0.93
2017-11-28T03:44:58.562Z,1.00
2017-11-28T03:47:28.125Z,1.27
2017-11-28T03:49:57.683Z,1.52
2017-11-28T03:52:27.194Z,1.08
2017-11-28T03:54:56.718Z,1.35
2017-11-28T03:57:26.257Z,0.90
2017-11-28T03:59:55.758Z,1.25
2017-11-28T04:02:25.232Z,1.10
2017-11-28T04:04:54.945Z,1.10
2017-11-28T04:07:24.462Z,1.10
2017-11-28T04:09:54.006Z,1.05
2017-11-28T04:12:23.514Z,1.52
2017-11-28T04:14:52.995Z,1.27
2017-11-28T04:17:22.491Z,1.10
2017-11-28T04:19:52.046Z,1.55
2017-11-28T04:22:21.554Z,1.30
2017-11-28T04:24:51.074Z,1.40
2017-11-28T04:27:20.528Z,2.45
2017-11-28T04:29:50.104Z,1.05
2017-11-28T04:32:19.714Z,1.20
2017-11-28T04:34:49.274Z,1.45
2017-11-28T04:37:18.824Z,1.30
2017-11-28T04:39:48.307Z,2.58
2017-11-28T04:42:18.008Z,1.42
2017-11-28T04:44:47.522Z,1.40
2017-11-28T04:47:17.053Z,1.20
2017-11-28T04:49:46.586Z,2.15
2017-11-28T04:52:16.217Z,1.35
2017-11-28T04:54:45.724Z,1.30
2017-11-28T04:57:15.266Z,1.92
2017-11-28T04:59:44.754Z,2.42
2017-11-28T05:02:14.254Z,1.70
2017-11-28T05:04:43.789Z,2.47
2017-11-28T05:07:13.350Z,1.37
2017-11-28T05:09:42.840Z,1.48
2017-11-28T05:12:12.366Z,2.75
2017-11-28T05:14:41.874Z,2.90
2017-11-28T05:17:11.381Z,2.67
2017-11-28T05:19:40.938Z,3.03
2017-11-28T05:22:10.420Z,1.65
2017-11-28T05:24:40.004Z,2.58
2017-11-28T05:27:09.508Z,1.23
2017-11-28T05:29:39.038Z,1.23
2017-11-28T05:32:08.551Z,1.15
2017-11-28T05:34:38.120Z,4.95
2017-11-28T05:37:07.736Z,1.77
2017-11-28T05:39:37.284Z,2.45
2017-11-28T05:42:06.800Z,2.53
2017-11-28T05:44:36.317Z,1.92
2017-11-28T05:47:05.965Z,1.20
2017-11-28T05:49:35.520Z,1.40
2017-11-28T05:52:05.072Z,1.80
2017-11-28T05:54:34.630Z,3.42
2017-11-28T05:57:04.140Z,5.75
2017-11-28T05:59:33.731Z,3.67
2017-11-28T06:02:03.247Z,1.90
2017-11-28T06:04:32.737Z,3.42
2017-11-28T06:07:02.263Z,2.60
2017-11-28T06:09:31.868Z,2.85
2017-11-28T06:12:01.380Z,1.85
2017-11-28T06:14:30.969Z,1.23
2017-11-28T06:17:00.498Z,1.20
2017-11-28T06:19:30.029Z,4.30
2017-11-28T06:21:59.568Z,8.98
2017-11-28T06:24:29.039Z,3.60
2017-11-28T06:26:58.577Z,3.95
2017-11-28T06:29:28.117Z,5.37
2017-11-28T06:31:57.648Z,6.57
2017-11-28T06:34:27.196Z,4.60
2017-11-28T06:36:56.672Z,8.35
2017-11-28T06:39:26.484Z,2.45
2017-11-28T06:41:55.946Z,2.55
2017-11-28T06:44:25.459Z,8.85
2017-11-28T06:46:54.969Z,2.97
2017-11-28T06:49:24.481Z,4.62
2017-11-28T06:51:54.105Z,4.90
2017-11-28T06:54:23.613Z,3.15
2017-11-28T06:56:55.065Z,3.62
2017-11-28T06:59:24.577Z,3.08
2017-11-28T07:01:54.133Z,3.45
2017-11-28T07:04:23.680Z,2.25
2017-11-28T07:06:53.231Z,2.58
2017-11-28T07:09:22.761Z,3.30
2017-11-28T07:11:52.371Z,3.92
2017-11-28T07:14:21.942Z,2.35
2017-11-28T07:16:51.432Z,2.62
2017-11-28T07:19:20.962Z,3.05
2017-11-28T07:21:50.592Z,2.35
2017-11-28T07:24:20.107Z,1.60
2017-11-28T07:26:49.641Z,3.97
2017-11-28T07:29:19.156Z,2.12
2017-11-28T07:31:48.689Z,2.78
2017-11-28T07:34:18.152Z,3.10
2017-11-28T07:36:47.750Z,3.40
2017-11-28T07:39:17.257Z,3.30
2017-11-28T07:41:46.765Z,3.40
2017-11-28T07:44:16.233Z,3.72
2017-11-28T07:46:45.989Z,3.03
2017-11-28T07:49:15.479Z,2.92
2017-11-28T07:51:44.980Z,3.17
2017-11-28T07:54:14.484Z,2.53
2017-11-28T07:56:44.023Z,3.75
2017-11-28T07:59:13.516Z,4.18
2017-11-28T08:01:42.989Z,2.33
2017-11-28T08:04:12.597Z,3.22
2017-11-28T08:06:42.112Z,3.37
2017-11-28T08:09:11.634Z,4.60
2017-11-28T08:11:41.161Z,2.70
2017-11-28T08:14:10.699Z,5.20
2017-11-28T08:16:40.209Z,4.30
2017-11-28T08:19:09.734Z,2.72
2017-11-28T08:21:39.233Z,4.95
2017-11-28T08:24:08.786Z,3.40
2017-11-28T08:26:38.269Z,3.85
2017-11-28T08:29:07.808Z,2.87
2017-11-28T08:31:37.346Z,2.28
2017-11-28T08:34:06.824Z,2.17
2017-11-28T08:36:36.482Z,3.60
2017-11-28T08:39:06.016Z,2.40
2017-11-28T08:41:35.520Z,3.03
2017-11-28T08:44:05.043Z,3.35
2017-11-28T08:46:34.511Z,3.05
2017-11-28T08:49:04.037Z,3.70
2017-11-28T08:51:33.529Z,3.20
2017-11-28T08:54:03.034Z,5.03
2017-11-28T08:56:32.707Z,2.92
2017-11-28T08:59:02.210Z,4.53
2017-11-28T09:01:31.733Z,4.05
2017-11-28T09:04:01.279Z,2.60
2017-11-28T09:06:30.825Z,4.55
2017-11-28T09:09:00.452Z,3.47
2017-11-28T09:11:29.956Z,5.10
2017-11-28T09:13:59.475Z,5.55
2017-11-28T09:16:29.003Z,2.55
2017-11-28T09:18:58.485Z,3.97
2017-11-28T09:21:28.008Z,3.58
2017-11-28T09:23:57.521Z,3.20
2017-11-28T09:26:27.017Z,3.87
2017-11-28T09:28:56.564Z,4.03
2017-11-28T09:31:26.110Z,6.07
2017-11-28T09:33:55.613Z,2.60
2017-11-28T09:36:25.096Z,2.95
2017-11-28T09:38:54.626Z,3.70
2017-11-28T09:41:24.129Z,3.25
2017-11-28T09:43:53.637Z,3.05
2017-11-28T09:46:23.185Z,3.90
2017-11-28T09:48:52.663Z,4.68
2017-11-28T09:51:22.192Z,6.30
2017-11-28T09:53:51.706Z,2.58
2017-11-28T09:56:21.180Z,5.82
2017-11-28T09:58:50.716Z,3.58
2017-11-28T10:01:20.281Z,3.78
2017-11-28T10:03:49.764Z,2.78
2017-11-28T10:06:19.282Z,3.00
2017-11-28T10:08:48.765Z,2.80
2017-11-28T10:11:18.302Z,2.35
2017-11-28T10:13:47.795Z,2.40
2017-11-28T10:16:17.308Z,3.10
2017-11-28T10:18:46.802Z,2.05
2017-11-28T10:21:16.334Z,4.40
2017-11-28T10:23:45.826Z,4.10
2017-11-28T10:26:15.340Z,4.35
2017-11-28T10:28:44.844Z,2.20
2017-11-28T10:31:14.366Z,4.55
2017-11-28T10:33:43.879Z,2.65
2017-11-28T10:36:13.396Z,1.85
2017-11-28T10:38:42.927Z,3.53
2017-11-28T10:41:12.411Z,3.62
2017-11-28T10:43:41.971Z,2.58
2017-11-28T10:46:11.499Z,3.85
2017-11-28T10:48:40.991Z,2.85
2017-11-28T10:51:10.498Z,3.75
2017-11-28T10:53:40.145Z,4.35
2017-11-28T10:56:09.688Z,3.67
2017-11-28T10:58:39.170Z,5.05
2017-11-28T11:01:08.664Z,3.53
2017-11-28T11:03:38.164Z,9.32
2017-11-28T11:06:07.625Z,3.65
2017-11-28T11:08:37.131Z,3.80
2017-11-28T11:11:06.623Z,2.50
2017-11-28T11:13:36.123Z,3.40
2017-11-28T11:16:05.659Z,2.78
2017-11-28T11:18:35.172Z,2.60
2017-11-28T11:21:04.708Z,2.20
2017-11-28T11:23:34.187Z,3.08
2017-11-28T11:26:03.702Z,3.75
2017-11-28T11:28:33.191Z,2.35
2017-11-28T11:31:02.684Z,5.93
2017-11-28T11:33:32.228Z,5.07
2017-11-28T11:36:01.735Z,2.35
2017-11-28T11:38:31.225Z,3.83
2017-11-28T11:41:00.738Z,2.50
2017-11-28T11:43:30.242Z,3.33
2017-11-28T11:45:59.766Z,3.12
2017-11-28T11:48:29.249Z,3.53
2017-11-28T11:50:58.803Z,3.53
2017-11-28T11:53:28.440Z,2.65
2017-11-28T11:55:57.965Z,3.28
2017-11-28T11:58:27.496Z,3.78
2017-11-28T12:00:56.986Z,4.50
2017-11-28T12:03:26.517Z,3.17
2017-11-28T12:05:56.126Z,5.62
2017-11-28T12:08:25.612Z,4.07
2017-11-28T12:10:55.213Z,5.32
2017-11-28T12:13:24.705Z,1.75
2017-11-28T12:15:54.207Z,5.45
2017-11-28T12:18:23.691Z,3.72
2017-11-28T12:20:53.215Z,5.45
2017-11-28T12:23:22.689Z,2.00
2017-11-28T12:25:52.222Z,4.32
2017-11-28T12:28:21.754Z,3.33
2017-11-28T12:30:51.241Z,2.58
2017-11-28T12:33:20.747Z,3.62
2017-11-28T12:35:50.278Z,3.45
2017-11-28T12:38:19.779Z,3.58
2017-11-28T12:40:49.275Z,2.00
2017-11-28T12:43:18.839Z,3.53
2017-11-28T12:45:48.341Z,6.03
2017-11-28T12:48:17.860Z,2.08
2017-11-28T12:50:47.370Z,3.55
2017-11-28T12:53:16.934Z,2.35
2017-11-28T12:55:46.563Z,5.07
2017-11-28T12:58:16.042Z,2.95
2017-11-28T13:00:45.554Z,3.28
2017-11-28T13:03:15.032Z,6.15
2017-11-28T13:05:44.571Z,3.50
2017-11-28T13:08:14.055Z,3.05
2017-11-28T13:10:43.565Z,5.15
2017-11-28T13:13:13.046Z,5.22
2017-11-28T13:15:42.601Z,3.50
2017-11-28T13:18:12.075Z,2.65
2017-11-28T13:20:41.588Z,2.75
2017-11-28T13:23:11.109Z,3.03
2017-11-28T13:25:40.614Z,3.70
2017-11-28T13:28:10.160Z,2.10
2017-11-28T13:30:39.735Z,3.47
2017-11-28T13:33:09.249Z,3.95
2017-11-28T13:35:38.765Z,2.40
2017-11-28T13:38:08.308Z,6.12
2017-11-28T13:40:37.819Z,2.12
2017-11-28T13:43:07.331Z,2.90
2017-11-28T13:45:36.889Z,2.03
2017-11-28T13:48:06.393Z,4.55
2017-11-28T13:50:36.133Z,3.62
2017-11-28T13:53:05.641Z,2.85
2017-11-28T13:55:35.212Z,3.75
2017-11-28T13:58:04.717Z,2.80
2017-11-28T14:00:34.262Z,5.68
2017-11-28T14:03:03.781Z,2.97
2017-11-28T14:05:33.301Z,4.78
2017-11-28T14:08:02.828Z,3.58
2017-11-28T14:10:32.331Z,3.90
2017-11-28T14:13:01.864Z,4.95
2017-11-28T14:15:31.404Z,2.30
2017-11-28T14:18:00.916Z,2.03
2017-11-28T14:20:45.384Z,2.03
2017-11-28T14:23:30.768Z,2.55
2017-11-28T14:26:19.934Z,3.70
2017-11-28T14:28:50.229Z,3.35
2017-11-28T14:31:25.641Z,5.10
2017-11-28T14:33:56.011Z,4.25
2017-11-28T14:36:25.565Z,3.28
2017-11-28T14:38:56.734Z,3.45
2017-11-28T14:41:28.241Z,4.40
2017-11-28T14:44:00.600Z,3.65
2017-11-28T14:46:30.212Z,4.12
2017-11-28T14:48:59.751Z,3.58
2017-11-28T14:51:35.004Z,3.72
2017-11-28T14:54:10.505Z,2.15
2017-11-28T14:56:44.566Z,3.00
2017-11-28T14:59:19.925Z,2.75
2017-11-28T15:01:49.478Z,4.72
2017-11-28T15:04:24.837Z,4.03
2017-11-28T15:07:14.246Z,3.75
2017-11-28T15:09:49.422Z,3.00
2017-11-28T15:12:24.693Z,6.47
2017-11-28T15:14:59.885Z,2.83
2017-11-28T15:17:48.268Z,3.05
2017-11-28T15:20:23.531Z,4.57
2017-11-28T15:22:54.004Z,2.17
2017-11-28T15:25:39.323Z,4.05
2017-11-28T15:28:10.421Z,2.67
2017-11-28T15:30:39.896Z,2.95
2017-11-28T15:33:09.418Z,2.97
2017-11-28T15:35:38.939Z,4.43
2017-11-28T15:38:08.525Z,5.22
2017-11-28T15:40:38.019Z,3.40
2017-11-28T15:43:07.574Z,3.75
2017-11-28T15:45:37.059Z,5.00
2017-11-28T15:48:06.600Z,3.17
2017-11-28T15:50:36.120Z,3.80
2017-11-28T15:53:05.604Z,2.80
2017-11-28T15:55:35.091Z,3.08
2017-11-28T15:58:04.572Z,11.12
2017-11-28T16:00:34.085Z,4.62
2017-11-28T16:03:03.614Z,4.25
2017-11-28T16:05:33.102Z,2.97
2017-11-28T16:08:02.667Z,8.10
2017-11-28T16:10:32.120Z,4.95
2017-11-28T16:13:01.653Z,3.15
2017-11-28T16:15:31.160Z,3.20
2017-11-28T16:18:00.670Z,3.53
2017-11-28T16:20:30.218Z,2.80
2017-11-28T16:22:59.706Z,9.48
2017-11-28T16:25:29.225Z,3.72
2017-11-28T16:27:58.712Z,4.05
2017-11-28T16:30:28.336Z,3.67
2017-11-28T16:32:57.819Z,6.20
2017-11-28T16:35:27.353Z,4.53
2017-11-28T16:37:56.820Z,3.67
2017-11-28T16:40:26.338Z,5.03
2017-11-28T16:42:55.868Z,5.80
2017-11-28T16:45:25.410Z,4.10
2017-11-28T16:47:54.875Z,5.00
2017-11-28T16:50:24.493Z,5.05
2017-11-28T16:52:53.987Z,2.50
2017-11-28T16:55:23.492Z,4.62
2017-11-28T16:57:52.965Z,3.50
2017-11-28T17:00:22.627Z,2.58
2017-11-28T17:02:52.117Z,3.47
2017-11-28T17:05:21.886Z,4.82
2017-11-28T17:07:51.384Z,5.05
2017-11-28T17:10:20.914Z,5.10
2017-11-28T17:12:50.421Z,4.45
2017-11-28T17:15:19.901Z,4.85
2017-11-28T17:17:49.423Z,4.90
2017-11-28T17:20:18.909Z,5.10
2017-11-28T17:22:48.437Z,4.10
2017-11-28T17:25:17.961Z,3.67
2017-11-28T17:27:47.504Z,3.50
2017-11-28T17:30:17.023Z,3.80
2017-11-28T17:32:46.530Z,2.33
2017-11-28T17:35:16.032Z,4.15
2017-11-28T17:37:45.500Z,2.67
2017-11-28T17:40:15.060Z,2.47
2017-11-28T17:42:44.572Z,3.40
2017-11-28T17:45:14.116Z,4.70
2017-11-28T17:47:43.611Z,1.60
2017-11-28T17:50:13.116Z,3.97
2017-11-28T17:52:42.629Z,1.80
2017-11-28T17:55:12.112Z,2.03
2017-11-28T17:57:41.640Z,3.53
2017-11-28T18:00:11.365Z,3.00
2017-11-28T18:02:40.933Z,3.55
2017-11-28T18:05:10.437Z,2.58
2017-11-28T18:07:40.092Z,4.40
2017-11-28T18:10:09.579Z,4.37
2017-11-28T18:12:39.110Z,3.35
2017-11-28T18:15:08.589Z,2.72
2017-11-28T18:17:38.128Z,4.50
2017-11-28T18:20:07.609Z,3.85
2017-11-28T18:22:37.206Z,5.37
2017-11-28T18:25:06.684Z,2.90
2017-11-28T18:27:36.207Z,3.95
2017-11-28T18:30:05.743Z,3.35
2017-11-28T18:32:35.288Z,2.37
2017-11-28T18:35:04.832Z,4.68
2017-11-28T18:37:34.332Z,2.30
2017-11-28T18:40:03.879Z,3.87
2017-11-28T18:42:33.379Z,2.28
2017-11-28T18:45:02.883Z,4.15
2017-11-28T18:47:32.466Z,4.68
2017-11-28T18:50:02.003Z,3.72
2017-11-28T18:52:31.487Z,2.85
2017-11-28T18:55:01.098Z,2.53
2017-11-28T18:57:31.474Z,4.68
2017-11-28T19:00:01.046Z,6.30
2017-11-28T19:02:30.529Z,8.80
2017-11-28T19:05:00.073Z,28.83
2017-11-28T19:07:29.582Z,25.95
2017-11-28T19:09:59.118Z,24.42
2017-11-28T19:12:28.675Z,19.52
2017-11-28T19:14:58.245Z,24.48
2017-11-28T19:17:28.299Z,26.00
2017-11-28T19:19:57.855Z,28.12
2017-11-28T19:22:27.445Z,37.30
2017-11-28T19:24:57.023Z,32.55
2017-11-28T19:27:26.538Z,23.38
2017-11-28T19:29:56.135Z,25.02
2017-11-28T19:32:25.694Z,24.10
2017-11-28T19:34:55.269Z,24.60
2017-11-28T19:37:24.807Z,28.65
2017-11-28T19:39:55.207Z,26.45
2017-11-28T19:42:24.757Z,21.10
2017-11-28T19:44:54.336Z,23.60
2017-11-28T19:47:23.848Z,26.62
2017-11-28T19:49:53.397Z,19.70
2017-11-28T19:52:22.923Z,22.97
2017-11-28T19:54:52.482Z,22.77
2017-11-28T19:57:22.044Z,20.60
2017-11-28T19:59:51.628Z,29.50
2017-11-28T20:02:21.220Z,29.70
2017-11-28T20:04:50.722Z,25.25
2017-11-28T20:07:20.312Z,28.13
2017-11-28T20:09:49.978Z,24.83
2017-11-28T20:12:19.488Z,19.15
2017-11-28T20:14:49.639Z,16.02
2017-11-28T20:17:19.245Z,14.82
2017-11-28T20:19:48.791Z,16.65
2017-11-28T20:22:18.431Z,14.82
2017-11-28T20:24:48.202Z,15.38
2017-11-28T20:27:17.770Z,15.32
2017-11-28T20:29:47.328Z,13.13
2017-11-28T20:32:16.874Z,22.70
2017-11-28T20:34:46.402Z,49.67
2017-11-28T20:37:15.962Z,52.60
2017-11-28T20:39:45.482Z,58.10
2017-11-28T20:42:15.073Z,50.25
2017-11-28T20:44:44.608Z,42.50
2017-11-28T20:47:14.171Z,42.92
2017-11-28T20:49:43.713Z,41.13
2017-11-28T20:52:13.365Z,43.53
2017-11-28T20:54:42.960Z,46.55
2017-11-28T20:57:12.460Z,55.63
2017-11-28T20:59:42.029Z,80.70
2017-11-28T21:02:11.558Z,71.82
2017-11-28T21:04:41.099Z,75.37
2017-11-28T21:07:11.097Z,76.78
2017-11-28T21:09:40.672Z,76.55
2017-11-28T21:12:10.210Z,77.93
2017-11-28T21:14:40.746Z,65.25
2017-11-28T21:17:10.326Z,67.45
2017-11-28T21:19:39.867Z,70.68
2017-11-28T21:22:09.438Z,58.28
2017-11-28T21:24:38.990Z,61.63
2017-11-28T21:27:08.521Z,64.87
2017-11-28T21:29:38.032Z,66.45
2017-11-28T21:32:07.848Z,70.40
2017-11-28T21:34:37.393Z,54.80
2017-11-28T21:37:06.891Z,52.55
2017-11-28T21:39:36.459Z,43.70
2017-11-28T21:42:05.963Z,47.43
2017-11-28T21:44:35.518Z,45.15
2017-11-28T21:47:05.067Z,38.85
2017-11-28T21:49:34.629Z,39.53
2017-11-28T21:52:04.130Z,43.13
2017-11-28T21:54:33.665Z,36.92
2017-11-28T21:57:03.160Z,42.28
2017-11-28T21:59:32.692Z,38.47
2017-11-28T22:02:02.225Z,36.75
2017-11-28T22:04:31.737Z,38.85
2017-11-28T22:07:01.225Z,43.08
2017-11-28T22:09:30.812Z,25.45
2017-11-28T22:12:00.296Z,22.85
2017-11-28T22:14:30.075Z,19.98
2017-11-28T22:16:59.698Z,17.37
2017-11-28T22:19:29.232Z,14.93
2017-11-28T22:21:58.818Z,17.08
2017-11-28T22:24:28.299Z,16.75
2017-11-28T22:26:57.825Z,14.90
2017-11-28T22:29:27.359Z,14.60
2017-11-28T22:31:56.837Z,12.52
2017-11-28T22:34:26.362Z,12.40
2017-11-28T22:36:56.010Z,10.95
2017-11-28T22:39:25.532Z,13.85
2017-11-28T22:41:55.050Z,13.35
2017-11-28T22:44:24.597Z,9.73
2017-11-28T22:46:54.110Z,9.52
2017-11-28T22:49:23.638Z,8.95
2017-11-28T22:51:53.116Z,6.03
2017-11-28T22:54:22.650Z,11.90
2017-11-28T22:56:52.137Z,6.32
2017-11-28T22:59:21.675Z,9.02
2017-11-28T23:01:51.177Z,7.50
2017-11-28T23:04:20.749Z,7.80
2017-11-28T23:06:50.258Z,7.15
2017-11-28T23:09:19.792Z,5.40
2017-11-28T23:11:49.325Z,5.62
2017-11-28T23:14:24.657Z,8.20
2017-11-28T23:16:54.192Z,4.15
2017-11-28T23:19:23.703Z,5.80
2017-11-28T23:21:53.200Z,4.78
2017-11-28T23:24:22.754Z,5.43
2017-11-28T23:26:52.246Z,6.55
2017-11-28T23:29:21.739Z,4.45
2017-11-28T23:31:51.244Z,4.80
2017-11-28T23:34:20.776Z,5.25
2017-11-28T23:36:50.284Z,4.43
2017-11-28T23:39:19.766Z,4.12
2017-11-28T23:41:49.287Z,3.15
2017-11-28T23:44:18.826Z,3.80
2017-11-28T23:46:48.379Z,4.65
2017-11-28T23:49:17.889Z,4.15
2017-11-28T23:51:47.350Z,5.10
2017-11-28T23:54:16.863Z,4.95
2017-11-28T23:56:46.354Z,4.87
2017-11-28T23:59:15.862Z,3.00
